Skip Navigation Links
NOAA logo - Click to go to the NOAA homepage
NOAA's National Weather Service
Alaska Aviation Weather Unit
  NWS logo - Click to go to the NWS homepage
Left Navbar Graphic     08 AKDT = 16 GMT

   
NOAA is celebrating 200 years of science, service, and stewardship. Visit the NOAA 200th celebration Web site to learn more.
USA.gov is the U.S. Government's official Web portal to all Federal, state and local government Web resources and services.
Facebook
NWS on Facebook

Important Change Regarding the AAWU Web Presence

 

Over the last several months, the AAWU has been working to navigate its webpages to a nationally supported server. Security, as well as other needs, have necessitated the change.  In the process, we have made an effort to enhance the functionality of our website, as well as some of our products. As of June 20, 2017, aawu.arh.noaa.gov will be discontinued. The new AAWU web address is weather.gov/aawu. It is now live and will run in-parallel with the old site until it is discontinued. Please send any feedback or questions regarding the new webpages to nws.ar.aawu.webauthors@noaa.gov.  Thank you for your patience during this time of transition.
AAWU Home :: Display TAF Add Bookmark
TAF PAMC 291124Z 2912/3012 VRB06KT P6SM OVC090
     FM291500 VRB06KT P6SM VCSH BKN050 OVC100
     FM300000 24008G18KT 6SM -SHRA BR SCT025 BKN035 OVC050=

METAR PAMC 291053Z AUTO 24004KT 10SM OVC090 08/01 A2974 RMK AO2 SLP075 T00780011 TSNO= METAR PAMC 291153Z AUTO 00000KT 10SM FEW100 07/01 A2975 RMK AO2 SLP076 T00670011 10139 20067 51010 TSNO= METAR PAMC 291253Z AUTO 00000KT 10SM OVC090 06/02 A2975 RMK AO2 SLP077 T00610017 TSNO= METAR PAMC 291353Z AUTO 00000KT 10SM -RA SCT050 SCT070 BKN100 07/03 A2976 RMK AO2 RAB24 SLP081 P0000 T00670033 TSNO= METAR PAMC 291453Z AUTO 22006KT 10SM BKN070 OVC085 08/03 A2976 RMK AO2 RAE1358 SLP082 P0000 60000 T00780028 52005 TSNO= METAR PAMC 291553Z AUTO 24005KT 10SM OVC070 08/03 A2977 RMK AO2 SLP084 T00830028 TSNO=
 Alaska TAF Map

NOAA's National Weather Service
Alaska Aviation Weather Unit
6930 Sand Lake Road
Anchorage, AK 99502-1845
Disclaimer
Credits
Glossary
Privacy Policy
About Us
Career Opportunities
Contact AAWU Internet Services Site last modified: April, 17th 2012